sensor_id;sensor_type;location;lat;lon;timestamp;temperature;humidity
306;DHT22;137;48.578;9.180;2022-10-30T00:21:43;14.40;98.20
306;DHT22;137;48.578;9.180;2022-10-30T00:24:24;14.40;98.20
306;DHT22;137;48.578;9.180;2022-10-30T00:27:41;14.30;98.20
306;DHT22;137;48.578;9.180;2022-10-30T00:30:30;14.30;98.20
306;DHT22;137;48.578;9.180;2022-10-30T02:53:58;13.30;98.20
306;DHT22;137;48.578;9.180;2022-10-30T02:56:39;13.30;98.20
306;DHT22;137;48.578;9.180;2022-10-30T02:59:22;13.30;98.20
306;DHT22;137;48.578;9.180;2022-10-30T03:02:12;13.30;98.20
306;DHT22;137;48.578;9.180;2022-10-30T03:04:54;13.30;98.20
306;DHT22;137;48.578;9.180;2022-10-30T03:07:34;13.30;98.20
306;DHT22;137;48.578;9.180;2022-10-30T03:10:32;13.30;98.20
306;DHT22;137;48.578;9.180;2022-10-30T03:13:00;13.20;98.20
306;DHT22;137;48.578;9.180;2022-10-30T03:15:27;13.20;98.20
306;DHT22;137;48.578;9.180;2022-10-30T03:17:54;13.10;98.20
306;DHT22;137;48.578;9.180;2022-10-30T03:20:21;13.10;98.20
306;DHT22;137;48.578;9.180;2022-10-30T03:22:48;13.10;98.20
306;DHT22;137;48.578;9.180;2022-10-30T03:25:15;13.10;98.20
306;DHT22;137;48.578;9.180;2022-10-30T03:37:32;13.10;98.20
306;DHT22;137;48.578;9.180;2022-10-30T03:39:59;13.00;98.20
306;DHT22;137;48.578;9.180;2022-10-30T03:42:26;13.00;98.20
306;DHT22;137;48.578;9.180;2022-10-30T03:45:08;13.00;98.20
306;DHT22;137;48.578;9.180;2022-10-30T03:47:38;13.00;98.20
306;DHT22;137;48.578;9.180;2022-10-30T03:50:13;12.90;98.20
306;DHT22;137;48.578;9.180;2022-10-30T04:15:09;13.00;98.20
306;DHT22;137;48.578;9.180;2022-10-30T04:17:38;13.00;98.20
306;DHT22;137;48.578;9.180;2022-10-30T04:20:19;13.00;98.20
306;DHT22;137;48.578;9.180;2022-10-30T04:23:00;13.00;98.20
306;DHT22;137;48.578;9.180;2022-10-30T04:25:29;12.90;98.20
306;DHT22;137;48.578;9.180;2022-10-30T04:28:10;12.90;98.20
306;DHT22;137;48.578;9.180;2022-10-30T04:33:49;12.80;98.20
306;DHT22;137;48.578;9.180;2022-10-30T04:36:16;12.70;98.20
306;DHT22;137;48.578;9.180;2022-10-30T04:38:57;12.70;98.20
306;DHT22;137;48.578;9.180;2022-10-30T04:41:38;12.60;98.20
306;DHT22;137;48.578;9.180;2022-10-30T04:44:05;12.60;98.20
306;DHT22;137;48.578;9.180;2022-10-30T04:46:46;12.60;98.20
306;DHT22;137;48.578;9.180;2022-10-30T04:52:39;12.50;98.20
306;DHT22;137;48.578;9.180;2022-10-30T04:55:07;12.40;98.20
306;DHT22;137;48.578;9.180;2022-10-30T04:57:36;12.40;98.20
306;DHT22;137;48.578;9.180;2022-10-30T05:00:17;12.30;98.20
306;DHT22;137;48.578;9.180;2022-10-30T05:02:44;12.30;98.20
306;DHT22;137;48.578;9.180;2022-10-30T05:05:11;12.20;98.20
306;DHT22;137;48.578;9.180;2022-10-30T05:07:39;12.10;98.20
306;DHT22;137;48.578;9.180;2022-10-30T05:10:10;12.10;98.20
306;DHT22;137;48.578;9.180;2022-10-30T05:12:51;12.10;98.20
306;DHT22;137;48.578;9.180;2022-10-30T05:15:19;12.00;98.20
306;DHT22;137;48.578;9.180;2022-10-30T05:17:50;12.00;98.20
306;DHT22;137;48.578;9.180;2022-10-30T05:20:17;12.00;98.20
306;DHT22;137;48.578;9.180;2022-10-30T05:22:45;12.00;98.20
306;DHT22;137;48.578;9.180;2022-10-30T05:25:18;11.90;98.20
306;DHT22;137;48.578;9.180;2022-10-30T05:27:45;11.90;98.20
306;DHT22;137;48.578;9.180;2022-10-30T05:30:12;11.80;98.20
306;DHT22;137;48.578;9.180;2022-10-30T05:32:39;11.80;98.20
306;DHT22;137;48.578;9.180;2022-10-30T05:35:06;11.80;98.20
306;DHT22;137;48.578;9.180;2022-10-30T05:37:33;11.80;98.20
306;DHT22;137;48.578;9.180;2022-10-30T05:40:02;11.90;98.20
306;DHT22;137;48.578;9.180;2022-10-30T05:42:28;11.90;98.20
306;DHT22;137;48.578;9.180;2022-10-30T05:44:55;11.90;98.20
306;DHT22;137;48.578;9.180;2022-10-30T05:47:22;11.90;98.20
306;DHT22;137;48.578;9.180;2022-10-30T05:49:49;11.90;98.20
306;DHT22;137;48.578;9.180;2022-10-30T05:52:16;11.80;98.20
306;DHT22;137;48.578;9.180;2022-10-30T05:54:42;11.70;98.20
306;DHT22;137;48.578;9.180;2022-10-30T05:57:11;11.70;98.20
306;DHT22;137;48.578;9.180;2022-10-30T05:59:38;11.70;98.20
306;DHT22;137;48.578;9.180;2022-10-30T06:02:04;11.70;98.20
306;DHT22;137;48.578;9.180;2022-10-30T06:04:31;11.70;98.20
306;DHT22;137;48.578;9.180;2022-10-30T06:06:58;11.60;98.20
306;DHT22;137;48.578;9.180;2022-10-30T06:09:25;11.60;98.20
306;DHT22;137;48.578;9.180;2022-10-30T06:11:52;11.60;98.20
306;DHT22;137;48.578;9.180;2022-10-30T06:14:21;11.60;98.20
306;DHT22;137;48.578;9.180;2022-10-30T06:16:48;11.60;98.20
306;DHT22;137;48.578;9.180;2022-10-30T06:19:15;11.60;98.20
306;DHT22;137;48.578;9.180;2022-10-30T06:21:42;11.70;98.20
306;DHT22;137;48.578;9.180;2022-10-30T06:24:09;11.70;98.20
306;DHT22;137;48.578;9.180;2022-10-30T06:26:36;11.70;98.20
306;DHT22;137;48.578;9.180;2022-10-30T06:32:25;11.70;98.20
306;DHT22;137;48.578;9.180;2022-10-30T06:34:52;11.70;98.20
306;DHT22;137;48.578;9.180;2022-10-30T06:37:19;11.70;98.20
306;DHT22;137;48.578;9.180;2022-10-30T06:39:46;11.80;98.20
306;DHT22;137;48.578;9.180;2022-10-30T06:42:13;11.80;98.20
306;DHT22;137;48.578;9.180;2022-10-30T06:44:40;11.90;98.20
306;DHT22;137;48.578;9.180;2022-10-30T06:47:07;12.00;98.20
306;DHT22;137;48.578;9.180;2022-10-30T06:49:35;12.10;98.20
306;DHT22;137;48.578;9.180;2022-10-30T06:52:02;12.20;98.20
306;DHT22;137;48.578;9.180;2022-10-30T06:54:28;12.30;98.20
306;DHT22;137;48.578;9.180;2022-10-30T06:56:55;12.30;98.20
306;DHT22;137;48.578;9.180;2022-10-30T06:59:23;12.40;98.20
306;DHT22;137;48.578;9.180;2022-10-30T07:01:49;12.40;98.20
306;DHT22;137;48.578;9.180;2022-10-30T07:04:16;12.40;98.20
306;DHT22;137;48.578;9.180;2022-10-30T07:06:45;12.50;98.20
306;DHT22;137;48.578;9.180;2022-10-30T07:09:11;12.50;98.20
306;DHT22;137;48.578;9.180;2022-10-30T07:11:38;12.50;98.20
306;DHT22;137;48.578;9.180;2022-10-30T07:14:10;12.60;98.20
306;DHT22;137;48.578;9.180;2022-10-30T07:16:36;12.70;98.20
306;DHT22;137;48.578;9.180;2022-10-30T07:19:03;12.80;98.20
306;DHT22;137;48.578;9.180;2022-10-30T07:21:30;12.90;98.20
306;DHT22;137;48.578;9.180;2022-10-30T07:23:58;13.00;98.20
306;DHT22;137;48.578;9.180;2022-10-30T07:26:25;13.00;98.20
306;DHT22;137;48.578;9.180;2022-10-30T07:28:52;13.10;98.20
306;DHT22;137;48.578;9.180;2022-10-30T07:31:18;13.10;98.20
306;DHT22;137;48.578;9.180;2022-10-30T07:33:45;13.20;98.20
306;DHT22;137;48.578;9.180;2022-10-30T07:36:12;13.30;98.20
306;DHT22;137;48.578;9.180;2022-10-30T07:38:39;13.30;98.20
306;DHT22;137;48.578;9.180;2022-10-30T07:41:07;13.40;98.20
306;DHT22;137;48.578;9.180;2022-10-30T07:43:34;13.40;98.20
306;DHT22;137;48.578;9.180;2022-10-30T07:46:01;13.50;98.20
306;DHT22;137;48.578;9.180;2022-10-30T07:48:27;13.50;98.20
306;DHT22;137;48.578;9.180;2022-10-30T07:50:54;13.50;98.20
306;DHT22;137;48.578;9.180;2022-10-30T07:53:21;13.50;98.20
306;DHT22;137;48.578;9.180;2022-10-30T07:55:48;13.50;98.20
306;DHT22;137;48.578;9.180;2022-10-30T07:58:16;13.60;98.20
306;DHT22;137;48.578;9.180;2022-10-30T08:00:43;13.70;98.20
306;DHT22;137;48.578;9.180;2022-10-30T08:03:10;13.80;98.20
306;DHT22;137;48.578;9.180;2022-10-30T08:05:37;13.80;98.20
306;DHT22;137;48.578;9.180;2022-10-30T08:08:04;13.90;98.20
306;DHT22;137;48.578;9.180;2022-10-30T08:10:31;14.00;98.20
306;DHT22;137;48.578;9.180;2022-10-30T08:12:58;14.10;98.20
306;DHT22;137;48.578;9.180;2022-10-30T08:15:26;14.20;98.20
306;DHT22;137;48.578;9.180;2022-10-30T08:17:53;14.30;98.20
306;DHT22;137;48.578;9.180;2022-10-30T08:20:21;14.40;98.20
306;DHT22;137;48.578;9.180;2022-10-30T08:22:50;14.50;98.20
306;DHT22;137;48.578;9.180;2022-10-30T08:25:18;14.60;98.20
306;DHT22;137;48.578;9.180;2022-10-30T08:27:50;14.70;98.20
306;DHT22;137;48.578;9.180;2022-10-30T08:30:17;14.80;98.20
306;DHT22;137;48.578;9.180;2022-10-30T08:32:46;15.00;98.20
306;DHT22;137;48.578;9.180;2022-10-30T08:35:13;15.10;98.20
306;DHT22;137;48.578;9.180;2022-10-30T08:37:40;15.20;98.20
306;DHT22;137;48.578;9.180;2022-10-30T08:40:08;15.20;98.20
306;DHT22;137;48.578;9.180;2022-10-30T08:42:35;15.30;98.20
306;DHT22;137;48.578;9.180;2022-10-30T08:45:03;15.30;98.20
306;DHT22;137;48.578;9.180;2022-10-30T08:47:30;15.40;98.20
306;DHT22;137;48.578;9.180;2022-10-30T08:49:58;15.50;98.20
306;DHT22;137;48.578;9.180;2022-10-30T08:52:25;15.70;98.20
306;DHT22;137;48.578;9.180;2022-10-30T08:54:52;15.80;98.20
306;DHT22;137;48.578;9.180;2022-10-30T08:57:19;16.00;98.20
306;DHT22;137;48.578;9.180;2022-10-30T08:59:46;16.20;98.20
306;DHT22;137;48.578;9.180;2022-10-30T09:02:12;16.40;98.20
306;DHT22;137;48.578;9.180;2022-10-30T09:04:39;16.60;98.20
306;DHT22;137;48.578;9.180;2022-10-30T09:07:07;16.70;98.20
306;DHT22;137;48.578;9.180;2022-10-30T09:09:34;16.90;98.20
306;DHT22;137;48.578;9.180;2022-10-30T09:12:01;17.10;98.20
306;DHT22;137;48.578;9.180;2022-10-30T09:14:28;17.40;98.20
306;DHT22;137;48.578;9.180;2022-10-30T09:16:55;17.60;98.20
306;DHT22;137;48.578;9.180;2022-10-30T09:19:21;17.80;98.20
306;DHT22;137;48.578;9.180;2022-10-30T09:21:48;18.00;98.20
306;DHT22;137;48.578;9.180;2022-10-30T09:24:16;18.20;98.20
306;DHT22;137;48.578;9.180;2022-10-30T09:26:44;18.30;98.20
306;DHT22;137;48.578;9.180;2022-10-30T09:29:11;18.50;98.20
306;DHT22;137;48.578;9.180;2022-10-30T09:31:38;18.60;98.20
306;DHT22;137;48.578;9.180;2022-10-30T09:34:05;18.80;98.20
306;DHT22;137;48.578;9.180;2022-10-30T09:36:33;19.00;98.20
306;DHT22;137;48.578;9.180;2022-10-30T09:39:00;19.10;98.20
306;DHT22;137;48.578;9.180;2022-10-30T09:41:44;19.20;98.20
306;DHT22;137;48.578;9.180;2022-10-30T09:44:25;19.40;98.20
306;DHT22;137;48.578;9.180;2022-10-30T09:47:03;19.60;98.20
306;DHT22;137;48.578;9.180;2022-10-30T09:49:43;19.80;98.20
306;DHT22;137;48.578;9.180;2022-10-30T09:52:22;20.00;98.20
306;DHT22;137;48.578;9.180;2022-10-30T09:55:08;20.20;98.20
306;DHT22;137;48.578;9.180;2022-10-30T09:57:47;20.40;98.20
306;DHT22;137;48.578;9.180;2022-10-30T10:00:18;20.50;98.20
306;DHT22;137;48.578;9.180;2022-10-30T10:03:02;20.60;98.20
306;DHT22;137;48.578;9.180;2022-10-30T10:05:37;20.70;98.20
306;DHT22;137;48.578;9.180;2022-10-30T10:08:10;20.80;98.20
306;DHT22;137;48.578;9.180;2022-10-30T10:10:41;20.80;98.20
306;DHT22;137;48.578;9.180;2022-10-30T10:13:15;20.80;98.20
306;DHT22;137;48.578;9.180;2022-10-30T10:15:49;20.90;98.20
306;DHT22;137;48.578;9.180;2022-10-30T10:18:18;20.90;98.20
306;DHT22;137;48.578;9.180;2022-10-30T10:20:51;21.10;98.20
306;DHT22;137;48.578;9.180;2022-10-30T10:23:25;21.30;98.20
306;DHT22;137;48.578;9.180;2022-10-30T10:25:53;21.30;98.20
306;DHT22;137;48.578;9.180;2022-10-30T10:28:41;21.30;98.20
306;DHT22;137;48.578;9.180;2022-10-30T10:31:19;21.40;98.20
306;DHT22;137;48.578;9.180;2022-10-30T10:33:57;21.60;98.20
306;DHT22;137;48.578;9.180;2022-10-30T10:36:32;21.80;98.20
306;DHT22;137;48.578;9.180;2022-10-30T10:39:12;22.00;98.20
306;DHT22;137;48.578;9.180;2022-10-30T10:41:52;22.20;98.20
306;DHT22;137;48.578;9.180;2022-10-30T10:44:33;22.30;98.20
306;DHT22;137;48.578;9.180;2022-10-30T10:50:16;22.50;98.20
306;DHT22;137;48.578;9.180;2022-10-30T10:52:48;22.60;98.20
306;DHT22;137;48.578;9.180;2022-10-30T10:55:18;22.70;98.20
306;DHT22;137;48.578;9.180;2022-10-30T10:57:46;22.80;98.20
306;DHT22;137;48.578;9.180;2022-10-30T11:00:16;22.70;98.20
306;DHT22;137;48.578;9.180;2022-10-30T11:02:48;22.70;98.20
306;DHT22;137;48.578;9.180;2022-10-30T11:05:21;22.80;98.20
306;DHT22;137;48.578;9.180;2022-10-30T11:07:51;22.90;98.20
306;DHT22;137;48.578;9.180;2022-10-30T11:10:19;22.90;98.20
306;DHT22;137;48.578;9.180;2022-10-30T11:12:48;23.00;98.20
306;DHT22;137;48.578;9.180;2022-10-30T11:15:23;23.10;98.20
306;DHT22;137;48.578;9.180;2022-10-30T11:17:57;23.10;98.20
306;DHT22;137;48.578;9.180;2022-10-30T11:20:30;23.20;98.20
306;DHT22;137;48.578;9.180;2022-10-30T11:23:01;23.30;98.20
306;DHT22;137;48.578;9.180;2022-10-30T11:25:33;23.20;98.20
306;DHT22;137;48.578;9.180;2022-10-30T11:28:03;23.10;98.20
306;DHT22;137;48.578;9.180;2022-10-30T11:30:31;23.00;98.20
306;DHT22;137;48.578;9.180;2022-10-30T11:32:59;23.00;98.20
306;DHT22;137;48.578;9.180;2022-10-30T11:35:46;23.00;98.20
306;DHT22;137;48.578;9.180;2022-10-30T11:38:17;22.90;98.20
306;DHT22;137;48.578;9.180;2022-10-30T11:40:46;22.90;98.20
306;DHT22;137;48.578;9.180;2022-10-30T11:43:17;22.90;98.20
306;DHT22;137;48.578;9.180;2022-10-30T11:45:48;22.90;98.20
306;DHT22;137;48.578;9.180;2022-10-30T11:48:21;22.90;98.20
306;DHT22;137;48.578;9.180;2022-10-30T11:50:51;23.00;98.20
306;DHT22;137;48.578;9.180;2022-10-30T11:53:23;23.00;98.20
306;DHT22;137;48.578;9.180;2022-10-30T11:55:56;23.10;98.20
306;DHT22;137;48.578;9.180;2022-10-30T11:58:28;23.10;98.20
306;DHT22;137;48.578;9.180;2022-10-30T12:01:03;23.20;98.20
306;DHT22;137;48.578;9.180;2022-10-30T12:03:34;23.20;98.20
306;DHT22;137;48.578;9.180;2022-10-30T12:06:10;23.30;98.20
306;DHT22;137;48.578;9.180;2022-10-30T12:08:57;23.50;98.20
306;DHT22;137;48.578;9.180;2022-10-30T12:11:27;23.70;98.20
306;DHT22;137;48.578;9.180;2022-10-30T12:13:56;23.80;98.20
306;DHT22;137;48.578;9.180;2022-10-30T12:16:25;23.80;98.20
306;DHT22;137;48.578;9.180;2022-10-30T12:18:56;23.90;98.20
306;DHT22;137;48.578;9.180;2022-10-30T12:21:25;24.00;98.20
306;DHT22;137;48.578;9.180;2022-10-30T12:23:54;24.20;98.20
306;DHT22;137;48.578;9.180;2022-10-30T12:26:22;24.30;98.20
306;DHT22;137;48.578;9.180;2022-10-30T12:28:54;24.50;98.20
306;DHT22;137;48.578;9.180;2022-10-30T12:31:28;24.50;98.20
306;DHT22;137;48.578;9.180;2022-10-30T12:36:50;24.40;98.20
306;DHT22;137;48.578;9.180;2022-10-30T12:39:24;24.50;98.20
306;DHT22;137;48.578;9.180;2022-10-30T12:41:59;24.60;98.20
306;DHT22;137;48.578;9.180;2022-10-30T12:44:29;24.50;98.20
306;DHT22;137;48.578;9.180;2022-10-30T12:47:03;24.60;98.20
306;DHT22;137;48.578;9.180;2022-10-30T12:49:39;24.70;98.20
306;DHT22;137;48.578;9.180;2022-10-30T12:52:11;24.70;98.20
306;DHT22;137;48.578;9.180;2022-10-30T12:54:45;24.80;98.20
306;DHT22;137;48.578;9.180;2022-10-30T12:57:17;24.90;98.20
306;DHT22;137;48.578;9.180;2022-10-30T12:59:54;25.00;98.20
306;DHT22;137;48.578;9.180;2022-10-30T13:02:29;25.20;98.20
306;DHT22;137;48.578;9.180;2022-10-30T13:05:01;25.10;98.20
306;DHT22;137;48.578;9.180;2022-10-30T13:07:34;25.10;98.20
306;DHT22;137;48.578;9.180;2022-10-30T13:10:15;25.10;98.20
306;DHT22;137;48.578;9.180;2022-10-30T13:12:46;25.10;98.20
306;DHT22;137;48.578;9.180;2022-10-30T13:15:21;25.10;98.20
306;DHT22;137;48.578;9.180;2022-10-30T13:17:51;25.00;98.20
306;DHT22;137;48.578;9.180;2022-10-30T13:20:17;25.00;98.20
306;DHT22;137;48.578;9.180;2022-10-30T13:22:50;24.80;98.20
306;DHT22;137;48.578;9.180;2022-10-30T13:25:23;24.60;98.20
306;DHT22;137;48.578;9.180;2022-10-30T13:27:56;24.50;98.20
306;DHT22;137;48.578;9.180;2022-10-30T13:30:28;24.30;98.20
306;DHT22;137;48.578;9.180;2022-10-30T13:33:07;24.00;98.20
306;DHT22;137;48.578;9.180;2022-10-30T13:35:42;23.90;98.20
306;DHT22;137;48.578;9.180;2022-10-30T13:38:29;23.80;98.20
306;DHT22;137;48.578;9.180;2022-10-30T13:41:06;23.80;98.20
306;DHT22;137;48.578;9.180;2022-10-30T13:43:39;23.80;98.20
306;DHT22;137;48.578;9.180;2022-10-30T13:46:21;23.90;98.20
306;DHT22;137;48.578;9.180;2022-10-30T13:49:08;23.90;98.20
306;DHT22;137;48.578;9.180;2022-10-30T13:51:41;23.90;98.20
306;DHT22;137;48.578;9.180;2022-10-30T13:54:14;23.70;98.20
306;DHT22;137;48.578;9.180;2022-10-30T13:56:44;23.60;98.20
306;DHT22;137;48.578;9.180;2022-10-30T13:59:24;23.70;98.20
306;DHT22;137;48.578;9.180;2022-10-30T14:01:57;23.80;98.20
306;DHT22;137;48.578;9.180;2022-10-30T14:04:31;23.80;98.20
306;DHT22;137;48.578;9.180;2022-10-30T14:07:13;23.80;98.20
306;DHT22;137;48.578;9.180;2022-10-30T14:09:51;23.80;98.20
306;DHT22;137;48.578;9.180;2022-10-30T14:12:45;23.80;98.20
306;DHT22;137;48.578;9.180;2022-10-30T14:15:23;23.80;98.20
306;DHT22;137;48.578;9.180;2022-10-30T14:20:57;23.80;98.20
306;DHT22;137;48.578;9.180;2022-10-30T14:23:28;23.70;98.20
306;DHT22;137;48.578;9.180;2022-10-30T14:26:19;23.60;98.20
306;DHT22;137;48.578;9.180;2022-10-30T14:28:47;23.50;98.20
306;DHT22;137;48.578;9.180;2022-10-30T14:31:17;23.50;98.20
306;DHT22;137;48.578;9.180;2022-10-30T14:33:48;23.40;98.20
306;DHT22;137;48.578;9.180;2022-10-30T14:36:18;23.20;98.20
306;DHT22;137;48.578;9.180;2022-10-30T14:38:58;23.10;98.20
306;DHT22;137;48.578;9.180;2022-10-30T14:41:44;23.00;98.20
306;DHT22;137;48.578;9.180;2022-10-30T14:44:24;23.00;98.20
306;DHT22;137;48.578;9.180;2022-10-30T14:47:11;23.00;98.20
306;DHT22;137;48.578;9.180;2022-10-30T14:49:46;22.90;98.20
306;DHT22;137;48.578;9.180;2022-10-30T14:52:27;22.90;98.20
306;DHT22;137;48.578;9.180;2022-10-30T14:55:03;22.80;98.20
306;DHT22;137;48.578;9.180;2022-10-30T14:57:45;22.70;98.20
306;DHT22;137;48.578;9.180;2022-10-30T15:00:42;22.60;98.20
306;DHT22;137;48.578;9.180;2022-10-30T15:03:38;22.50;98.20
306;DHT22;137;48.578;9.180;2022-10-30T15:06:19;22.30;98.20
306;DHT22;137;48.578;9.180;2022-10-30T15:11:57;22.00;98.20
306;DHT22;137;48.578;9.180;2022-10-30T15:14:28;21.90;98.20
306;DHT22;137;48.578;9.180;2022-10-30T15:16:56;21.80;98.20
306;DHT22;137;48.578;9.180;2022-10-30T15:19:23;21.70;98.20
306;DHT22;137;48.578;9.180;2022-10-30T15:21:52;21.70;98.20
306;DHT22;137;48.578;9.180;2022-10-30T15:24:23;21.60;98.20
306;DHT22;137;48.578;9.180;2022-10-30T15:26:52;21.60;98.20
306;DHT22;137;48.578;9.180;2022-10-30T15:29:23;21.50;98.20
306;DHT22;137;48.578;9.180;2022-10-30T15:31:58;21.40;98.20
306;DHT22;137;48.578;9.180;2022-10-30T15:34:26;21.30;98.20
306;DHT22;137;48.578;9.180;2022-10-30T15:36:53;21.20;98.20
306;DHT22;137;48.578;9.180;2022-10-30T15:39:22;21.10;98.20
306;DHT22;137;48.578;9.180;2022-10-30T15:41:50;20.90;98.20
306;DHT22;137;48.578;9.180;2022-10-30T15:44:20;20.80;98.20
306;DHT22;137;48.578;9.180;2022-10-30T15:46:50;20.70;98.20
306;DHT22;137;48.578;9.180;2022-10-30T15:49:25;20.70;98.20
306;DHT22;137;48.578;9.180;2022-10-30T15:51:54;20.60;98.20
306;DHT22;137;48.578;9.180;2022-10-30T15:54:25;20.40;98.20
306;DHT22;137;48.578;9.180;2022-10-30T15:56:54;20.30;98.20
306;DHT22;137;48.578;9.180;2022-10-30T15:59:24;20.10;98.20
306;DHT22;137;48.578;9.180;2022-10-30T16:01:53;20.00;98.20
306;DHT22;137;48.578;9.180;2022-10-30T16:04:22;19.80;98.20
306;DHT22;137;48.578;9.180;2022-10-30T16:06:50;19.80;98.20
306;DHT22;137;48.578;9.180;2022-10-30T16:09:18;19.80;98.20
306;DHT22;137;48.578;9.180;2022-10-30T16:11:47;19.80;98.20
306;DHT22;137;48.578;9.180;2022-10-30T16:14:16;19.70;98.20
306;DHT22;137;48.578;9.180;2022-10-30T16:16:44;19.60;98.20
306;DHT22;137;48.578;9.180;2022-10-30T16:19:18;19.60;98.20
306;DHT22;137;48.578;9.180;2022-10-30T16:21:46;19.40;98.20
306;DHT22;137;48.578;9.180;2022-10-30T16:24:14;19.20;98.20
306;DHT22;137;48.578;9.180;2022-10-30T16:26:41;19.00;98.20
306;DHT22;137;48.578;9.180;2022-10-30T16:29:19;18.90;98.20
306;DHT22;137;48.578;9.180;2022-10-30T16:31:47;18.80;98.20
306;DHT22;137;48.578;9.180;2022-10-30T16:34:20;18.60;98.20
306;DHT22;137;48.578;9.180;2022-10-30T16:36:48;18.60;98.20
306;DHT22;137;48.578;9.180;2022-10-30T16:39:17;18.50;98.20
306;DHT22;137;48.578;9.180;2022-10-30T16:41:44;18.30;98.20
306;DHT22;137;48.578;9.180;2022-10-30T16:44:19;18.30;98.20
306;DHT22;137;48.578;9.180;2022-10-30T16:46:52;18.20;98.20
306;DHT22;137;48.578;9.180;2022-10-30T16:49:22;18.10;98.20
306;DHT22;137;48.578;9.180;2022-10-30T16:51:57;18.10;98.20
306;DHT22;137;48.578;9.180;2022-10-30T16:54:27;18.00;98.20
306;DHT22;137;48.578;9.180;2022-10-30T16:56:57;17.90;98.20
306;DHT22;137;48.578;9.180;2022-10-30T16:59:31;17.70;98.20
306;DHT22;137;48.578;9.180;2022-10-30T17:02:00;17.60;98.20
306;DHT22;137;48.578;9.180;2022-10-30T17:04:32;17.60;98.20
306;DHT22;137;48.578;9.180;2022-10-30T17:07:04;17.40;98.20
306;DHT22;137;48.578;9.180;2022-10-30T17:09:36;17.50;98.20
306;DHT22;137;48.578;9.180;2022-10-30T17:12:10;17.50;98.20
306;DHT22;137;48.578;9.180;2022-10-30T17:14:46;17.40;98.20
306;DHT22;137;48.578;9.180;2022-10-30T17:17:23;17.30;98.20
306;DHT22;137;48.578;9.180;2022-10-30T17:19:55;17.20;98.20
306;DHT22;137;48.578;9.180;2022-10-30T17:22:24;17.10;98.20
306;DHT22;137;48.578;9.180;2022-10-30T17:24:51;17.00;98.20
306;DHT22;137;48.578;9.180;2022-10-30T17:27:30;17.10;98.20
306;DHT22;137;48.578;9.180;2022-10-30T17:29:59;17.00;98.20
306;DHT22;137;48.578;9.180;2022-10-30T17:32:27;16.90;98.20
306;DHT22;137;48.578;9.180;2022-10-30T17:34:57;16.80;98.20
306;DHT22;137;48.578;9.180;2022-10-30T17:37:26;16.70;98.20
306;DHT22;137;48.578;9.180;2022-10-30T17:39:53;16.60;98.20
306;DHT22;137;48.578;9.180;2022-10-30T17:42:21;16.60;98.20
306;DHT22;137;48.578;9.180;2022-10-30T17:44:49;16.60;98.20
306;DHT22;137;48.578;9.180;2022-10-30T17:47:18;16.60;98.20
306;DHT22;137;48.578;9.180;2022-10-30T17:49:46;16.50;98.20
306;DHT22;137;48.578;9.180;2022-10-30T17:52:15;16.50;98.20
306;DHT22;137;48.578;9.180;2022-10-30T17:54:43;16.50;98.20
306;DHT22;137;48.578;9.180;2022-10-30T17:57:10;16.30;98.20
306;DHT22;137;48.578;9.180;2022-10-30T17:59:38;16.30;98.20
306;DHT22;137;48.578;9.180;2022-10-30T18:02:11;16.30;98.20
306;DHT22;137;48.578;9.180;2022-10-30T18:04:40;16.30;98.20
306;DHT22;137;48.578;9.180;2022-10-30T18:07:07;16.20;98.20
306;DHT22;137;48.578;9.180;2022-10-30T18:09:34;16.30;98.20
306;DHT22;137;48.578;9.180;2022-10-30T18:12:01;16.20;98.20
306;DHT22;137;48.578;9.180;2022-10-30T18:14:28;16.10;98.20
306;DHT22;137;48.578;9.180;2022-10-30T18:16:55;16.00;98.20
306;DHT22;137;48.578;9.180;2022-10-30T18:19:22;16.00;98.20
306;DHT22;137;48.578;9.180;2022-10-30T18:21:50;16.00;98.20
306;DHT22;137;48.578;9.180;2022-10-30T18:24:18;16.00;98.20
306;DHT22;137;48.578;9.180;2022-10-30T18:26:45;15.90;98.20
306;DHT22;137;48.578;9.180;2022-10-30T18:29:12;15.90;98.20
306;DHT22;137;48.578;9.180;2022-10-30T18:31:39;15.80;98.20
306;DHT22;137;48.578;9.180;2022-10-30T18:34:13;15.80;98.20
306;DHT22;137;48.578;9.180;2022-10-30T18:36:41;15.70;98.20
306;DHT22;137;48.578;9.180;2022-10-30T18:39:09;15.60;98.20
306;DHT22;137;48.578;9.180;2022-10-30T18:41:40;15.60;98.20
306;DHT22;137;48.578;9.180;2022-10-30T18:44:11;15.50;98.20
306;DHT22;137;48.578;9.180;2022-10-30T18:46:38;15.40;98.20
306;DHT22;137;48.578;9.180;2022-10-30T18:49:04;15.40;98.20
306;DHT22;137;48.578;9.180;2022-10-30T18:51:32;15.30;98.20
306;DHT22;137;48.578;9.180;2022-10-30T18:53:58;15.40;98.20
306;DHT22;137;48.578;9.180;2022-10-30T18:56:27;15.40;98.20
306;DHT22;137;48.578;9.180;2022-10-30T18:58:55;15.30;98.20
306;DHT22;137;48.578;9.180;2022-10-30T19:01:23;15.30;98.20
306;DHT22;137;48.578;9.180;2022-10-30T19:03:50;15.30;98.20
306;DHT22;137;48.578;9.180;2022-10-30T19:06:19;15.40;98.20
306;DHT22;137;48.578;9.180;2022-10-30T19:08:46;15.30;98.20
306;DHT22;137;48.578;9.180;2022-10-30T19:11:16;15.30;98.20
306;DHT22;137;48.578;9.180;2022-10-30T19:13:45;15.20;98.20
306;DHT22;137;48.578;9.180;2022-10-30T19:16:14;15.20;98.20
306;DHT22;137;48.578;9.180;2022-10-30T19:18:41;15.10;98.20
306;DHT22;137;48.578;9.180;2022-10-30T19:21:12;15.10;98.20
306;DHT22;137;48.578;9.180;2022-10-30T19:23:40;15.10;98.20
306;DHT22;137;48.578;9.180;2022-10-30T19:26:07;15.10;98.20
306;DHT22;137;48.578;9.180;2022-10-30T19:28:34;15.10;98.20
306;DHT22;137;48.578;9.180;2022-10-30T19:31:04;15.20;98.20
306;DHT22;137;48.578;9.180;2022-10-30T19:33:31;15.20;98.20
306;DHT22;137;48.578;9.180;2022-10-30T19:35:59;15.20;98.20
306;DHT22;137;48.578;9.180;2022-10-30T19:38:26;15.20;98.20
306;DHT22;137;48.578;9.180;2022-10-30T19:40:54;15.20;98.20
306;DHT22;137;48.578;9.180;2022-10-30T19:43:21;15.20;98.20
306;DHT22;137;48.578;9.180;2022-10-30T19:45:51;15.30;98.20
306;DHT22;137;48.578;9.180;2022-10-30T19:48:19;15.30;98.20
306;DHT22;137;48.578;9.180;2022-10-30T19:50:48;15.20;98.20
306;DHT22;137;48.578;9.180;2022-10-30T19:53:15;15.20;98.20
306;DHT22;137;48.578;9.180;2022-10-30T19:55:42;15.00;98.20
306;DHT22;137;48.578;9.180;2022-10-30T19:58:11;14.80;98.20
306;DHT22;137;48.578;9.180;2022-10-30T20:00:39;14.70;98.20
306;DHT22;137;48.578;9.180;2022-10-30T20:03:09;14.60;98.20
306;DHT22;137;48.578;9.180;2022-10-30T20:05:39;14.50;98.20
306;DHT22;137;48.578;9.180;2022-10-30T20:08:10;14.40;98.20
306;DHT22;137;48.578;9.180;2022-10-30T20:10:39;14.30;98.20
306;DHT22;137;48.578;9.180;2022-10-30T20:13:08;14.20;98.20
306;DHT22;137;48.578;9.180;2022-10-30T20:15:35;14.10;98.20
306;DHT22;137;48.578;9.180;2022-10-30T20:18:08;14.10;98.20
306;DHT22;137;48.578;9.180;2022-10-30T20:20:41;14.00;98.20
306;DHT22;137;48.578;9.180;2022-10-30T20:23:10;14.00;98.20
306;DHT22;137;48.578;9.180;2022-10-30T20:25:37;14.00;98.20
306;DHT22;137;48.578;9.180;2022-10-30T20:28:14;14.00;98.20
306;DHT22;137;48.578;9.180;2022-10-30T20:30:43;13.90;98.20
306;DHT22;137;48.578;9.180;2022-10-30T20:33:12;13.90;98.20
306;DHT22;137;48.578;9.180;2022-10-30T20:35:40;13.80;98.20